createdAt,value
2022-08-26T00:10:18.430Z,16.10
2022-08-26T00:12:45.960Z,16.20
2022-08-26T00:15:17.035Z,16.10
2022-08-26T00:18:21.919Z,16.10
2022-08-26T00:24:49.625Z,16.00
2022-08-26T00:31:17.040Z,16.10
2022-08-26T00:33:44.677Z,16.00
2022-08-26T00:36:19.930Z,16.00
2022-08-26T00:43:29.974Z,15.90
2022-08-26T00:46:30.260Z,15.80
2022-08-26T00:53:12.289Z,15.80
2022-08-26T00:55:45.661Z,15.80
2022-08-26T00:58:13.202Z,15.90
2022-08-26T01:04:37.009Z,15.70
2022-08-26T01:08:01.772Z,15.70
2022-08-26T01:10:31.669Z,15.70
2022-08-26T01:22:00.217Z,15.50
2022-08-26T01:24:30.292Z,15.40
2022-08-26T01:27:33.607Z,15.40
2022-08-26T01:30:05.146Z,15.40
2022-08-26T01:36:30.952Z,15.40
2022-08-26T01:42:50.138Z,15.30
2022-08-26T01:46:07.892Z,15.30
2022-08-26T01:48:39.400Z,15.30
2022-08-26T01:55:32.167Z,15.30
2022-08-26T02:14:48.028Z,14.90
2022-08-26T02:17:23.756Z,15.00
2022-08-26T02:19:51.475Z,14.90
2022-08-26T02:22:22.325Z,14.90
2022-08-26T02:25:09.860Z,14.80
2022-08-26T02:31:36.952Z,14.80
2022-08-26T02:35:00.533Z,14.70
2022-08-26T02:37:31.638Z,14.70
2022-08-26T02:44:34.148Z,14.50
2022-08-26T02:55:12.037Z,14.60
2022-08-26T03:05:58.353Z,14.30
2022-08-26T03:08:25.564Z,14.20
2022-08-26T03:10:52.980Z,14.10
2022-08-26T03:17:29.940Z,14.10
2022-08-26T08:35:00.181Z,17.60
2022-08-26T08:37:27.667Z,17.90
2022-08-26T08:39:55.633Z,17.70
2022-08-26T08:42:43.964Z,18.00
2022-08-26T08:45:42.053Z,17.90
2022-08-26T08:52:40.685Z,18.00
2022-08-26T08:59:19.354Z,18.10
2022-08-26T09:02:33.370Z,18.10
2022-08-26T09:09:32.907Z,18.20
2022-08-26T09:16:37.370Z,18.60
2022-08-26T09:19:25.520Z,18.60
2022-08-26T09:22:02.873Z,18.60
2022-08-26T09:24:41.979Z,18.70
2022-08-26T09:31:25.830Z,18.90
2022-08-26T09:34:31.000Z,19.00
2022-08-26T09:37:00.872Z,19.20
2022-08-26T09:39:38.311Z,19.20
2022-08-26T09:42:19.002Z,19.30
2022-08-26T09:44:55.685Z,19.40
2022-08-26T09:47:31.994Z,19.60
2022-08-26T09:50:23.469Z,19.60
2022-08-26T09:53:30.343Z,19.70
2022-08-26T10:00:00.287Z,19.80
2022-08-26T10:10:44.656Z,20.20
2022-08-26T10:13:33.176Z,20.50
2022-08-26T10:16:16.792Z,20.60
2022-08-26T10:19:05.726Z,20.70
2022-08-26T10:21:42.824Z,20.80
2022-08-26T10:24:20.484Z,20.90
2022-08-26T10:27:05.641Z,21.00
2022-08-26T10:29:47.071Z,21.10
2022-08-26T10:32:36.360Z,21.10
2022-08-26T10:46:08.641Z,22.50
2022-08-26T10:48:52.502Z,22.90
2022-08-26T10:59:58.426Z,25.10
2022-08-26T11:06:18.334Z,26.90
2022-08-26T11:13:05.021Z,27.90
2022-08-26T11:15:32.186Z,28.10
2022-08-26T11:18:05.218Z,28.20
2022-08-26T11:25:06.448Z,28.40
2022-08-26T11:35:54.067Z,25.00
2022-08-26T11:46:31.117Z,23.70
2022-08-26T11:49:06.614Z,23.50
2022-08-26T11:51:40.069Z,23.50
2022-08-26T11:54:30.702Z,23.40
2022-08-26T11:57:11.654Z,22.50
2022-08-26T11:59:41.787Z,23.10
2022-08-26T12:06:30.418Z,22.80
2022-08-26T12:09:02.443Z,22.70
2022-08-26T12:15:39.603Z,23.30
2022-08-26T12:18:29.150Z,24.60
2022-08-26T12:21:00.912Z,25.30
2022-08-26T13:36:31.911Z,24.00
2022-08-26T13:38:59.145Z,23.80
2022-08-26T13:46:41.551Z,23.40
2022-08-26T13:49:14.426Z,23.10
2022-08-26T13:51:41.881Z,23.00
2022-08-26T13:54:09.342Z,22.90
2022-08-26T13:56:36.767Z,23.00
2022-08-26T13:59:06.549Z,22.90
2022-08-26T14:01:35.813Z,23.00
2022-08-26T14:04:03.446Z,23.00
2022-08-26T14:10:40.449Z,22.90
2022-08-26T14:13:08.114Z,22.80
2022-08-26T14:15:37.931Z,22.80
2022-08-26T14:18:13.110Z,22.70
2022-08-26T14:20:50.553Z,22.60
2022-08-26T14:23:17.943Z,22.60
2022-08-26T14:25:45.236Z,22.60
2022-08-26T14:28:12.564Z,22.50
2022-08-26T14:34:50.121Z,22.40
2022-08-26T14:37:17.575Z,22.50
2022-08-26T14:39:46.184Z,22.60
2022-08-26T14:46:24.160Z,23.20
2022-08-26T14:48:51.436Z,23.20
2022-08-26T14:51:50.351Z,23.00
2022-08-26T14:54:18.525Z,22.80
2022-08-26T14:57:08.348Z,22.50
2022-08-26T15:00:25.073Z,22.40
2022-08-26T15:02:56.326Z,22.20
2022-08-26T15:05:23.978Z,22.30
2022-08-26T15:07:54.326Z,23.00
2022-08-26T15:10:23.351Z,23.10
2022-08-26T15:16:54.912Z,22.70
2022-08-26T15:19:24.422Z,22.40
2022-08-26T15:21:52.297Z,22.30
2022-08-26T15:24:23.366Z,22.10
2022-08-26T15:26:51.681Z,22.00
2022-08-26T15:29:19.725Z,21.90
2022-08-26T15:31:47.842Z,21.70
2022-08-26T15:34:17.244Z,21.70
2022-08-26T15:36:47.432Z,21.50
2022-08-26T15:39:16.910Z,21.50
2022-08-26T19:46:47.218Z,17.00
2022-08-26T19:49:14.535Z,16.90
2022-08-26T19:51:41.751Z,16.80
2022-08-26T19:54:08.916Z,16.80
2022-08-26T19:56:36.411Z,16.80
2022-08-26T19:59:03.788Z,16.60
2022-08-26T20:01:31.036Z,16.60
2022-08-26T20:03:58.352Z,16.60
2022-08-26T20:06:25.602Z,16.60
2022-08-26T20:08:53.880Z,16.50
2022-08-26T20:11:22.321Z,16.40
2022-08-26T20:13:49.582Z,16.40
2022-08-26T20:16:17.470Z,16.30
2022-08-26T20:18:45.586Z,16.30
2022-08-26T20:21:13.902Z,16.40
2022-08-26T20:23:41.523Z,16.30
2022-08-26T20:26:08.812Z,16.30
2022-08-26T20:28:36.209Z,16.20
2022-08-26T20:31:03.612Z,16.10
2022-08-26T20:33:45.983Z,16.10
2022-08-26T20:36:15.495Z,16.10
2022-08-26T20:38:43.161Z,16.10
2022-08-26T20:41:10.333Z,16.20
2022-08-26T20:43:37.667Z,16.10
2022-08-26T20:46:09.937Z,16.10
2022-08-26T20:48:45.644Z,16.00
2022-08-26T20:51:13.156Z,16.00
2022-08-26T20:53:40.566Z,16.10
2022-08-26T20:56:10.956Z,16.00
2022-08-26T20:58:38.839Z,16.00
2022-08-26T21:01:08.342Z,16.00
2022-08-26T21:03:36.844Z,16.00
2022-08-26T21:06:04.371Z,16.00
2022-08-26T21:08:33.060Z,16.00
2022-08-26T21:11:02.050Z,16.00
2022-08-26T21:13:42.917Z,15.90
2022-08-26T21:16:19.604Z,16.00
2022-08-26T21:18:47.625Z,15.90
2022-08-26T21:21:14.758Z,15.90
2022-08-26T21:23:41.960Z,15.80
2022-08-26T21:26:14.271Z,15.80
2022-08-26T21:28:44.291Z,15.80
2022-08-26T21:31:17.534Z,15.70
2022-08-26T21:33:45.183Z,15.70
2022-08-26T21:36:14.554Z,15.70
2022-08-26T21:38:42.394Z,15.70
2022-08-26T21:41:12.721Z,15.80
2022-08-26T21:43:42.152Z,15.80
2022-08-26T21:46:14.167Z,15.80
2022-08-26T21:48:48.744Z,15.90
2022-08-26T21:51:21.276Z,15.90
2022-08-26T21:53:49.758Z,16.00
2022-08-26T21:56:19.636Z,15.90
2022-08-26T21:58:46.922Z,15.90
2022-08-26T22:01:19.698Z,15.90
2022-08-26T22:03:49.148Z,16.10
2022-08-26T22:06:18.857Z,16.20
2022-08-26T22:08:46.438Z,16.20
2022-08-26T22:11:14.938Z,16.10
2022-08-26T22:13:43.793Z,15.80
2022-08-26T22:16:12.501Z,15.80
2022-08-26T22:18:40.783Z,15.60
2022-08-26T22:21:14.408Z,15.60
2022-08-26T22:23:41.918Z,15.70
2022-08-26T22:26:12.849Z,15.60
2022-08-26T22:28:40.335Z,15.50
2022-08-26T22:31:11.024Z,15.50
2022-08-26T22:33:40.929Z,15.50
2022-08-26T22:36:18.746Z,15.50
2022-08-26T22:38:47.411Z,15.50
2022-08-26T22:41:15.635Z,15.50
2022-08-26T22:43:42.800Z,15.50
2022-08-26T22:46:17.042Z,15.60
2022-08-26T22:48:44.525Z,15.50
2022-08-26T22:51:12.457Z,15.50
2022-08-26T22:53:41.534Z,15.40
2022-08-26T22:56:09.923Z,15.40
2022-08-26T22:58:37.440Z,15.40
2022-08-26T23:01:06.899Z,15.50
2022-08-26T23:03:35.362Z,15.40
2022-08-26T23:06:06.805Z,15.50
2022-08-26T23:08:34.135Z,15.40
2022-08-26T23:11:01.669Z,15.30
2022-08-26T23:13:28.922Z,15.40
2022-08-26T23:16:08.872Z,15.30
2022-08-26T23:18:37.104Z,15.40
2022-08-26T23:21:04.739Z,15.50
2022-08-26T23:23:33.271Z,15.40
2022-08-26T23:26:03.346Z,15.50
2022-08-26T23:28:36.088Z,15.50
2022-08-26T23:31:03.730Z,15.50
2022-08-26T23:33:31.182Z,15.50
2022-08-26T23:36:06.453Z,15.50
2022-08-26T23:38:33.610Z,15.50
2022-08-26T23:41:02.398Z,15.50
2022-08-26T23:47:28.992Z,15.40
2022-08-26T23:49:56.240Z,15.50
2022-08-26T23:56:33.528Z,15.50
2022-08-26T23:59:00.775Z,15.50
